createdAt,value
2022-10-11T00:01:54.236Z,14.48
2022-10-11T00:04:21.609Z,14.57
2022-10-11T00:06:48.985Z,14.93
2022-10-11T00:09:16.499Z,15.98
2022-10-11T00:11:43.974Z,14.95
2022-10-11T00:14:11.560Z,14.88
2022-10-11T00:16:38.943Z,15.55
2022-10-11T00:19:08.242Z,14.68
2022-10-11T00:21:35.593Z,15.98
2022-10-11T00:24:02.998Z,14.85
2022-10-11T00:26:30.398Z,15.43
2022-10-11T00:28:58.304Z,15.55
2022-10-11T00:31:25.635Z,15.13
2022-10-11T00:33:53.978Z,16.00
2022-10-11T00:36:23.200Z,15.57
2022-10-11T00:38:50.547Z,16.75
2022-10-11T00:41:18.278Z,14.85
2022-10-11T00:43:45.799Z,15.35
2022-10-11T00:46:28.478Z,15.82
2022-10-11T00:49:01.720Z,16.25
2022-10-11T00:51:39.309Z,16.02
2022-10-11T00:54:07.837Z,16.30
2022-10-11T00:56:38.911Z,17.20
2022-10-11T00:59:12.509Z,16.30
2022-10-11T01:01:40.014Z,16.27
2022-10-11T01:04:07.457Z,16.73
2022-10-11T01:06:36.463Z,16.25
2022-10-11T01:09:04.086Z,15.95
2022-10-11T01:11:31.712Z,15.38
2022-10-11T01:14:13.930Z,14.95
2022-10-11T01:16:52.415Z,14.40
2022-10-11T01:19:48.316Z,15.60
2022-10-11T01:22:34.597Z,15.07
2022-10-11T01:25:18.889Z,14.45
2022-10-11T01:28:06.140Z,14.02
2022-10-11T01:30:36.983Z,15.38
2022-10-11T01:33:14.475Z,15.40
2022-10-11T01:35:47.108Z,12.48
2022-10-11T01:38:21.572Z,13.65
2022-10-11T01:40:52.831Z,13.60
2022-10-11T01:43:22.027Z,14.57
2022-10-11T01:45:52.885Z,13.95
2022-10-11T01:48:20.248Z,13.95
2022-10-11T01:50:49.499Z,12.90
2022-10-11T01:53:36.289Z,12.82
2022-10-11T01:56:15.985Z,13.45
2022-10-11T02:01:26.737Z,13.00
2022-10-11T02:04:04.115Z,14.50
2022-10-11T02:06:37.615Z,14.32
2022-10-11T02:09:14.303Z,13.18
2022-10-11T02:11:42.057Z,14.20
2022-10-11T02:14:12.961Z,13.30
2022-10-11T02:16:45.090Z,13.32
2022-10-11T02:19:17.126Z,13.25
2022-10-11T02:21:47.502Z,13.73
2022-10-11T02:24:19.735Z,14.13
2022-10-11T02:26:50.355Z,13.63
2022-10-11T02:29:18.480Z,13.77
2022-10-11T02:31:49.694Z,12.73
2022-10-11T02:34:20.862Z,13.48
2022-10-11T02:36:55.662Z,14.13
2022-10-11T02:39:29.460Z,13.00
2022-10-11T02:42:00.037Z,13.63
2022-10-11T02:44:31.850Z,13.05
2022-10-11T02:47:01.658Z,14.52
2022-10-11T02:49:31.681Z,12.65
2022-10-11T02:51:59.506Z,13.35
2022-10-11T02:54:27.509Z,13.18
2022-10-11T02:56:54.943Z,13.57
2022-10-11T02:59:22.273Z,13.73
2022-10-11T03:01:49.751Z,13.45
2022-10-11T03:04:18.626Z,13.15
2022-10-11T03:06:46.144Z,12.97
2022-10-11T03:09:13.631Z,13.60
2022-10-11T03:11:41.081Z,13.05
2022-10-11T03:14:08.518Z,12.00
2022-10-11T03:16:35.903Z,12.48
2022-10-11T03:19:03.915Z,12.43
2022-10-11T03:21:32.907Z,12.93
2022-10-11T03:24:00.468Z,13.10
2022-10-11T03:26:28.015Z,12.65
2022-10-11T03:28:55.745Z,13.48
2022-10-11T03:31:23.327Z,14.40
2022-10-11T03:33:50.798Z,13.85
2022-10-11T03:36:18.298Z,14.13
2022-10-11T03:38:47.319Z,14.48
2022-10-11T03:41:14.921Z,14.10
2022-10-11T03:43:42.412Z,13.63
2022-10-11T03:46:09.922Z,14.10
2022-10-11T03:48:37.588Z,13.75
2022-10-11T03:51:05.147Z,13.57
2022-10-11T03:53:32.667Z,12.90
2022-10-11T03:56:07.336Z,14.35
2022-10-11T03:58:35.895Z,13.82
2022-10-11T04:01:03.303Z,13.50
2022-10-11T04:03:30.710Z,13.75
2022-10-11T04:05:58.215Z,14.25
2022-10-11T04:08:25.716Z,13.65
2022-10-11T04:10:53.123Z,13.98
2022-10-11T04:13:22.027Z,13.63
2022-10-11T04:15:49.488Z,13.32
2022-10-11T04:18:17.020Z,13.55
2022-10-11T04:20:44.400Z,12.73
2022-10-11T04:23:12.340Z,12.68
2022-10-11T04:25:39.793Z,13.48
2022-10-11T04:28:07.788Z,12.30
2022-10-11T04:30:36.675Z,13.18
2022-10-11T04:33:04.217Z,13.13
2022-10-11T04:35:31.618Z,13.93
2022-10-11T04:37:58.998Z,14.23
2022-10-11T04:40:26.380Z,14.32
2022-10-11T04:42:53.766Z,15.23
2022-10-11T04:45:21.501Z,15.30
2022-10-11T04:47:50.578Z,15.38
2022-10-11T04:50:18.375Z,15.25
2022-10-11T04:52:45.854Z,16.52
2022-10-11T04:55:14.651Z,15.38
2022-10-11T04:57:42.469Z,15.97
2022-10-11T05:00:11.279Z,15.95
2022-10-11T05:02:38.737Z,15.43
2022-10-11T05:05:08.817Z,17.40
2022-10-11T05:07:36.346Z,17.33
2022-10-11T05:10:04.252Z,16.98
2022-10-11T05:12:32.385Z,16.50
2022-10-11T05:14:59.723Z,17.45
2022-10-11T05:17:27.091Z,16.80
2022-10-11T05:19:54.571Z,15.90
2022-10-11T05:22:23.541Z,15.00
2022-10-11T05:24:50.955Z,15.80
2022-10-11T05:27:18.434Z,15.23
2022-10-11T05:29:45.772Z,14.75
2022-10-11T05:32:13.218Z,15.95
2022-10-11T05:34:40.662Z,13.80
2022-10-11T05:37:08.024Z,14.75
2022-10-11T05:39:36.944Z,16.25
2022-10-11T05:42:08.966Z,15.88
2022-10-11T05:44:37.380Z,16.25
2022-10-11T05:47:04.939Z,15.52
2022-10-11T05:49:32.281Z,15.32
2022-10-11T05:51:59.686Z,14.70
2022-10-11T05:54:29.800Z,15.13
2022-10-11T05:56:58.600Z,13.65
2022-10-11T05:59:25.961Z,16.20
2022-10-11T06:01:53.457Z,15.23
2022-10-11T06:04:20.846Z,12.65
2022-10-11T06:06:48.268Z,12.98
2022-10-11T06:09:15.650Z,10.93
2022-10-11T06:11:43.527Z,9.23
2022-10-11T06:14:12.369Z,11.38
2022-10-11T06:16:40.251Z,12.33
2022-10-11T06:19:07.805Z,13.43
2022-10-11T06:21:35.191Z,13.88
2022-10-11T06:24:02.565Z,13.55
2022-10-11T06:26:30.528Z,12.35
2022-10-11T06:28:58.136Z,11.45
2022-10-11T06:31:27.491Z,12.48
2022-10-11T06:33:54.923Z,13.15
2022-10-11T06:36:22.370Z,13.13
2022-10-11T06:38:52.044Z,12.80
2022-10-11T06:46:17.183Z,13.43
2022-10-11T06:48:47.741Z,12.27
2022-10-11T06:51:17.687Z,13.82
2022-10-11T06:53:49.480Z,11.32
2022-10-11T06:56:17.423Z,13.48
2022-10-11T06:58:44.815Z,19.80
2022-10-11T07:01:14.449Z,14.18
2022-10-11T07:06:12.082Z,15.90
2022-10-11T07:08:40.116Z,14.00
2022-10-11T07:11:09.730Z,14.18
2022-10-11T07:13:38.424Z,15.40
2022-10-11T07:16:08.425Z,15.10
2022-10-11T07:18:36.584Z,29.85
2022-10-11T07:21:06.512Z,15.85
2022-10-11T07:23:35.510Z,27.27
2022-10-11T07:26:03.949Z,17.08
2022-10-11T07:28:31.688Z,18.80
2022-10-11T07:30:59.558Z,18.65
2022-10-11T07:33:27.127Z,19.77
2022-10-11T07:35:57.833Z,19.70
2022-10-11T07:38:25.243Z,20.02
2022-10-11T07:40:54.257Z,21.27
2022-10-11T07:43:21.678Z,24.00
2022-10-11T07:45:51.674Z,22.92
2022-10-11T07:48:19.082Z,27.13
2022-10-11T07:50:46.528Z,26.30
2022-10-11T07:53:13.938Z,26.55
2022-10-11T07:55:41.323Z,25.95
2022-10-11T07:58:11.853Z,24.50
2022-10-11T08:00:40.651Z,31.30
2022-10-11T08:03:08.478Z,24.42
2022-10-11T08:05:38.216Z,22.98
2022-10-11T08:08:05.674Z,23.83
2022-10-11T08:10:37.441Z,25.23
2022-10-11T08:13:04.969Z,24.10
2022-10-11T08:15:33.818Z,22.30
2022-10-11T08:18:01.171Z,21.97
2022-10-11T08:20:28.619Z,21.60
2022-10-11T08:22:56.036Z,21.15
2022-10-11T08:25:23.438Z,18.85
2022-10-11T08:27:50.831Z,19.33
2022-10-11T08:30:18.287Z,18.95
2022-10-11T08:32:47.107Z,17.88
2022-10-11T08:35:15.153Z,19.13
2022-10-11T08:37:42.532Z,17.15
2022-10-11T08:40:15.962Z,17.30
2022-10-11T08:42:49.023Z,17.08
2022-10-11T08:45:27.227Z,16.60
2022-10-11T08:48:04.664Z,16.52
2022-10-11T08:50:32.616Z,16.02
2022-10-11T08:53:05.757Z,15.35
2022-10-11T08:55:39.915Z,16.02
2022-10-11T08:58:11.123Z,15.60
2022-10-11T09:00:38.796Z,15.20
2022-10-11T09:03:21.311Z,14.52
2022-10-11T09:05:59.194Z,13.77
2022-10-11T09:08:33.603Z,14.60
2022-10-11T09:11:10.298Z,13.85
2022-10-11T09:14:00.183Z,14.02
2022-10-11T09:16:37.297Z,13.48
2022-10-11T09:19:26.229Z,14.13
2022-10-11T09:22:04.858Z,14.48
2022-10-11T09:24:46.780Z,14.88
2022-10-11T09:27:19.561Z,15.85
2022-10-11T09:29:56.647Z,31.83
2022-10-11T09:32:28.785Z,18.17
2022-10-11T09:35:00.996Z,19.33
2022-10-11T09:37:34.881Z,20.17
2022-10-11T09:40:13.887Z,20.27
2022-10-11T09:42:41.264Z,20.80
2022-10-11T09:45:14.890Z,22.75
2022-10-11T09:47:42.417Z,23.52
2022-10-11T09:50:18.847Z,23.17
2022-10-11T09:52:49.918Z,24.60
2022-10-11T09:55:36.599Z,22.38
2022-10-11T09:58:04.654Z,22.35
2022-10-11T10:00:33.540Z,21.20
2022-10-11T10:03:03.366Z,21.52
2022-10-11T10:05:33.261Z,21.02
2022-10-11T10:08:20.269Z,20.85
2022-10-11T10:10:49.648Z,20.45
2022-10-11T10:13:21.833Z,18.73
2022-10-11T10:15:51.594Z,18.83
2022-10-11T10:18:23.350Z,18.38
2022-10-11T10:20:57.157Z,17.17
2022-10-11T10:23:27.317Z,18.67
2022-10-11T10:26:10.765Z,16.92
2022-10-11T10:28:38.700Z,18.08
2022-10-11T10:31:21.783Z,20.73
2022-10-11T10:33:52.549Z,20.15
2022-10-11T10:36:28.096Z,18.92
2022-10-11T10:39:02.513Z,22.90
2022-10-11T10:41:30.032Z,21.50
2022-10-11T10:43:59.612Z,23.08
2022-10-11T10:46:41.303Z,23.23
2022-10-11T10:49:52.599Z,23.17
2022-10-11T10:52:30.727Z,21.30
2022-10-11T10:55:06.931Z,22.10
2022-10-11T10:57:41.619Z,21.50
2022-10-11T11:00:14.953Z,19.67
2022-10-11T11:02:51.098Z,21.05
2022-10-11T11:05:27.131Z,21.80
2022-10-11T11:08:05.851Z,21.10
2022-10-11T11:10:39.193Z,22.13
2022-10-11T11:13:19.932Z,19.30
2022-10-11T11:15:56.467Z,20.33
2022-10-11T11:18:34.523Z,20.80
2022-10-11T11:21:15.810Z,19.10
2022-10-11T11:23:55.288Z,19.75
2022-10-11T11:26:31.716Z,18.77
2022-10-11T11:29:22.601Z,17.05
2022-10-11T11:32:05.459Z,18.70
2022-10-11T11:34:37.156Z,17.50
2022-10-11T11:37:10.243Z,18.25
2022-10-11T11:39:46.290Z,18.00
2022-10-11T11:42:19.385Z,17.58
2022-10-11T11:44:49.380Z,16.02
2022-10-11T11:47:23.920Z,16.30
2022-10-11T11:49:58.913Z,17.33
2022-10-11T11:52:29.880Z,16.52
2022-10-11T11:55:05.205Z,16.20
2022-10-11T11:57:47.669Z,14.25
2022-10-11T12:00:19.790Z,16.00
2022-10-11T12:02:53.214Z,15.48
2022-10-11T12:05:23.523Z,14.15
2022-10-11T12:07:55.825Z,15.55
2022-10-11T12:10:35.935Z,15.70
2022-10-11T12:13:17.450Z,14.55
2022-10-11T12:16:08.235Z,15.57
2022-10-11T12:18:47.572Z,14.65
2022-10-11T12:21:20.981Z,14.93
2022-10-11T12:23:49.740Z,15.00
2022-10-11T12:26:40.486Z,15.00
2022-10-11T12:29:52.237Z,14.60
2022-10-11T12:32:49.984Z,14.63
2022-10-11T12:36:05.575Z,14.32
2022-10-11T12:38:39.136Z,14.75
2022-10-11T12:41:37.676Z,14.15
2022-10-11T12:44:21.489Z,13.43
2022-10-11T12:47:18.589Z,13.10
2022-10-11T12:50:02.370Z,13.88
2022-10-11T12:52:38.823Z,13.52
2022-10-11T12:55:36.379Z,12.82
2022-10-11T12:58:24.567Z,13.43
2022-10-11T13:01:13.054Z,14.05
2022-10-11T13:03:42.767Z,12.90
2022-10-11T13:08:43.564Z,13.38
2022-10-11T13:11:19.392Z,14.60
2022-10-11T13:13:52.444Z,13.23
2022-10-11T13:16:24.065Z,14.23
2022-10-11T13:18:56.732Z,15.55
2022-10-11T13:21:32.031Z,13.05
2022-10-11T13:24:01.656Z,13.50
2022-10-11T13:26:31.379Z,13.02
2022-10-11T13:31:28.238Z,13.18
2022-10-11T13:33:57.823Z,14.15
2022-10-11T13:38:57.393Z,12.90
2022-10-11T13:41:27.074Z,13.02
2022-10-11T13:46:24.432Z,12.75
2022-10-11T13:49:01.564Z,13.15
2022-10-11T13:51:32.945Z,12.38
2022-10-11T13:54:03.989Z,11.30
2022-10-11T13:56:35.708Z,12.23
2022-10-11T13:59:03.358Z,11.93
2022-10-11T14:01:38.499Z,12.32
2022-10-11T14:04:09.644Z,12.10
2022-10-11T14:06:44.427Z,12.05
2022-10-11T14:09:22.191Z,12.57
2022-10-11T14:11:50.272Z,12.30
2022-10-11T14:14:40.262Z,11.25
2022-10-11T14:17:14.382Z,10.95
2022-10-11T14:19:43.969Z,12.43
2022-10-11T14:22:17.490Z,11.48
2022-10-11T14:24:47.831Z,11.07
2022-10-11T14:27:18.937Z,11.55
2022-10-11T14:30:00.427Z,10.93
2022-10-11T14:32:35.518Z,11.80
2022-10-11T14:35:05.089Z,10.55
2022-10-11T14:37:32.512Z,11.40
2022-10-11T14:40:00.445Z,11.50
2022-10-11T14:42:28.069Z,11.45
2022-10-11T14:44:55.411Z,10.57
2022-10-11T14:47:22.834Z,10.88
2022-10-11T14:49:50.417Z,10.18
2022-10-11T14:52:19.292Z,10.25
2022-10-11T14:54:46.675Z,10.23
2022-10-11T14:57:14.147Z,10.23
2022-10-11T14:59:42.330Z,9.48
2022-10-11T15:02:12.358Z,9.80
2022-10-11T15:04:39.890Z,8.90
2022-10-11T15:07:07.320Z,9.88
2022-10-11T15:09:36.219Z,10.82
2022-10-11T15:12:04.580Z,10.02
2022-10-11T15:14:32.010Z,8.98
2022-10-11T15:16:59.462Z,9.40
2022-10-11T15:19:27.232Z,9.48
2022-10-11T15:21:57.631Z,9.35
2022-10-11T15:24:25.114Z,9.80
2022-10-11T15:26:53.971Z,9.15
2022-10-11T15:29:21.387Z,9.77
2022-10-11T15:31:48.770Z,9.07
2022-10-11T15:34:16.387Z,8.85
2022-10-11T15:36:44.408Z,9.18
2022-10-11T15:39:23.364Z,8.85
2022-10-11T15:41:50.978Z,9.73
2022-10-11T15:44:20.825Z,8.77
2022-10-11T15:46:48.232Z,8.60
2022-10-11T15:49:16.330Z,8.57
2022-10-11T15:51:43.855Z,9.20
2022-10-11T15:54:11.248Z,8.70
2022-10-11T15:56:38.970Z,8.60
2022-10-11T15:59:06.515Z,8.93
2022-10-11T16:01:35.469Z,8.18
2022-10-11T16:04:02.936Z,9.07
2022-10-11T16:06:30.391Z,8.63
2022-10-11T16:08:57.797Z,9.23
2022-10-11T16:11:25.272Z,8.90
2022-10-11T16:13:52.730Z,8.98
2022-10-11T16:16:20.100Z,8.73
2022-10-11T16:18:49.836Z,9.40
2022-10-11T16:23:44.507Z,8.70
2022-10-11T16:26:14.125Z,9.20
2022-10-11T16:31:09.161Z,9.38
2022-10-11T16:33:36.811Z,9.07
2022-10-11T16:36:08.695Z,9.45
2022-10-11T16:38:36.303Z,9.43
2022-10-11T16:41:06.277Z,8.77
2022-10-11T16:43:33.705Z,9.20
2022-10-11T16:46:01.120Z,9.35
2022-10-11T16:48:28.619Z,9.27
2022-10-11T16:51:05.558Z,9.15
2022-10-11T16:53:35.570Z,9.55
2022-10-11T16:56:05.870Z,9.27
2022-10-11T16:58:33.847Z,9.55
2022-10-11T17:01:01.297Z,9.70
2022-10-11T17:03:29.187Z,9.32
2022-10-11T17:05:56.576Z,9.27
2022-10-11T17:08:24.513Z,9.38
2022-10-11T17:10:57.726Z,10.18
2022-10-11T17:13:25.561Z,9.82
2022-10-11T17:15:53.128Z,9.90
2022-10-11T17:18:20.533Z,9.63
2022-10-11T17:20:48.147Z,9.75
2022-10-11T17:23:16.396Z,10.15
2022-10-11T17:25:44.960Z,9.75
2022-10-11T17:28:13.823Z,10.35
2022-10-11T17:30:41.259Z,9.90
2022-10-11T17:33:09.026Z,10.15
2022-10-11T17:35:36.599Z,10.23
2022-10-11T17:38:06.308Z,9.57
2022-10-11T17:40:34.455Z,10.73
2022-10-11T17:43:01.892Z,10.30
2022-10-11T17:45:31.232Z,10.20
2022-10-11T17:47:58.601Z,10.60
2022-10-11T17:50:26.145Z,11.25
2022-10-11T17:52:53.588Z,11.75
2022-10-11T17:55:21.247Z,10.73
2022-10-11T17:57:48.889Z,10.35
2022-10-11T18:00:17.472Z,11.48
2022-10-11T18:02:47.641Z,10.80
2022-10-11T18:05:15.033Z,11.40
2022-10-11T18:07:43.020Z,11.18
2022-10-11T18:10:10.534Z,11.90
2022-10-11T18:12:37.915Z,11.23
2022-10-11T18:15:06.105Z,11.93
2022-10-11T18:17:33.585Z,11.68
2022-10-11T18:20:03.211Z,12.75
2022-10-11T18:22:30.820Z,12.70
2022-10-11T18:24:58.370Z,13.10
2022-10-11T18:27:25.885Z,12.77
2022-10-11T18:29:53.449Z,12.70
2022-10-11T18:32:20.834Z,12.13
2022-10-11T18:34:48.251Z,12.13
2022-10-11T18:37:17.268Z,12.63
2022-10-11T18:39:44.622Z,12.43
2022-10-11T18:42:12.005Z,11.65
2022-10-11T18:44:39.460Z,13.38
2022-10-11T18:47:06.839Z,12.70
2022-10-11T18:49:34.384Z,12.15
2022-10-11T18:52:01.721Z,13.60
2022-10-11T18:54:30.626Z,12.75
2022-10-11T18:56:58.896Z,11.57
2022-10-11T18:59:26.453Z,12.10
2022-10-11T19:01:53.872Z,12.43
2022-10-11T19:04:21.522Z,12.90
2022-10-11T19:06:49.925Z,12.80
2022-10-11T19:09:19.633Z,12.68
2022-10-11T19:14:17.570Z,12.10
2022-10-11T19:16:47.207Z,13.35
2022-10-11T19:21:42.076Z,12.50
2022-10-11T19:24:09.609Z,13.13
2022-10-11T19:26:39.505Z,12.85
2022-10-11T19:29:10.524Z,12.40
2022-10-11T19:31:42.756Z,12.77
2022-10-11T19:34:10.271Z,12.18
2022-10-11T19:36:38.516Z,11.77
2022-10-11T19:39:06.603Z,12.82
2022-10-11T19:41:34.722Z,12.00
2022-10-11T19:44:02.102Z,12.80
2022-10-11T19:49:18.423Z,12.83
2022-10-11T19:51:45.823Z,12.05
2022-10-11T19:54:15.701Z,12.43
2022-10-11T19:56:44.130Z,11.82
2022-10-11T19:59:12.216Z,12.02
2022-10-11T20:01:41.595Z,12.52
2022-10-11T20:04:22.643Z,11.80
2022-10-11T20:06:56.016Z,12.38
2022-10-11T20:09:29.583Z,11.57
2022-10-11T20:11:58.975Z,12.00
2022-10-11T20:14:26.509Z,11.50
2022-10-11T20:16:55.358Z,11.57
2022-10-11T20:19:26.439Z,11.63
2022-10-11T20:21:56.814Z,10.88
2022-10-11T20:24:24.375Z,11.00
2022-10-11T20:26:51.739Z,11.48
2022-10-11T20:29:19.148Z,10.90
2022-10-11T20:31:46.642Z,11.93
2022-10-11T20:34:15.521Z,10.70
2022-10-11T20:36:46.875Z,10.95
2022-10-11T20:39:16.806Z,11.40
2022-10-11T20:41:44.320Z,11.80
2022-10-11T20:44:11.697Z,11.15
2022-10-11T20:46:39.557Z,11.95
2022-10-11T20:49:08.520Z,10.93
2022-10-11T20:51:39.584Z,11.80
2022-10-11T20:54:07.763Z,11.63
2022-10-11T20:56:35.687Z,13.43
2022-10-11T20:59:03.371Z,13.98
2022-10-11T21:01:33.230Z,14.90
2022-10-11T21:04:01.631Z,13.48
2022-10-11T21:06:30.744Z,13.85
2022-10-11T21:09:00.611Z,14.13
2022-10-11T21:11:29.078Z,15.52
2022-10-11T21:13:56.952Z,15.75
2022-10-11T21:16:24.408Z,15.90
2022-10-11T21:18:52.594Z,17.02
2022-10-11T21:21:20.907Z,17.25
2022-10-11T21:23:48.267Z,17.27
2022-10-11T21:26:17.395Z,16.27
2022-10-11T21:28:45.905Z,16.00
2022-10-11T21:31:15.488Z,16.45
2022-10-11T21:33:43.753Z,14.45
2022-10-11T21:36:13.540Z,15.50
2022-10-11T21:38:41.614Z,15.70
2022-10-11T21:41:11.683Z,16.10
2022-10-11T21:43:40.540Z,15.98
2022-10-11T21:46:11.996Z,16.63
2022-10-11T21:48:40.561Z,16.98
2022-10-11T21:51:12.055Z,16.02
2022-10-11T21:53:39.440Z,16.58
2022-10-11T21:56:06.971Z,17.67
2022-10-11T21:58:34.383Z,15.32
2022-10-11T22:01:03.637Z,16.45
2022-10-11T22:03:31.081Z,17.52
2022-10-11T22:06:01.186Z,16.80
2022-10-11T22:08:28.664Z,17.25
2022-10-11T22:10:58.244Z,17.17
2022-10-11T22:13:26.798Z,16.35
2022-10-11T22:15:54.281Z,16.42
2022-10-11T22:18:23.257Z,16.17
2022-10-11T22:20:50.905Z,16.42
2022-10-11T22:23:18.386Z,16.20
2022-10-11T22:25:46.163Z,15.43
2022-10-11T22:28:13.635Z,15.80
2022-10-11T22:30:41.197Z,15.48
2022-10-11T22:33:08.634Z,15.55
2022-10-11T22:35:37.991Z,15.70
2022-10-11T22:38:06.127Z,15.35
2022-10-11T22:40:33.611Z,15.18
2022-10-11T22:43:00.986Z,14.63
2022-10-11T22:45:28.474Z,14.70
2022-10-11T22:47:55.895Z,15.63
2022-10-11T22:50:23.305Z,14.45
2022-10-11T22:52:52.147Z,14.63
2022-10-11T22:55:20.238Z,15.13
2022-10-11T22:57:47.775Z,16.02
2022-10-11T23:00:15.697Z,15.32
2022-10-11T23:02:43.125Z,15.05
2022-10-11T23:05:10.626Z,15.43
2022-10-11T23:07:38.834Z,14.77
2022-10-11T23:10:09.095Z,14.95
2022-10-11T23:12:36.766Z,14.35
2022-10-11T23:15:04.827Z,14.75
2022-10-11T23:17:32.865Z,15.63
2022-10-11T23:20:00.247Z,14.98
2022-10-11T23:22:27.819Z,15.18
2022-10-11T23:24:55.225Z,14.13
2022-10-11T23:27:24.102Z,14.55
2022-10-11T23:29:51.497Z,15.18
2022-10-11T23:32:18.867Z,14.80
2022-10-11T23:34:46.259Z,15.60
2022-10-11T23:37:14.060Z,14.65
2022-10-11T23:39:41.573Z,14.70
2022-10-11T23:42:08.962Z,15.60
2022-10-11T23:44:37.862Z,14.45
2022-10-11T23:47:05.249Z,15.70
2022-10-11T23:49:32.625Z,14.75
2022-10-11T23:52:00.047Z,14.48
2022-10-11T23:54:27.428Z,14.80
2022-10-11T23:56:54.953Z,15.25
2022-10-11T23:59:22.340Z,14.82
